sensor_id;sensor_type;location;lat;lon;timestamp;pressure;altitude;pressure_sealevel;temperature;humidity
71559;BME280;59382;43.852;25.952;2023-06-14T17:10:14;100887.47;;;27.28;41.18
71559;BME280;59382;43.852;25.952;2023-06-14T17:12:40;100909.06;;;27.39;41.00
71559;BME280;59382;43.852;25.952;2023-06-14T17:15:06;100902.03;;;27.33;41.12
71559;BME280;59382;43.852;25.952;2023-06-14T17:17:32;100914.44;;;27.44;41.47
71559;BME280;59382;43.852;25.952;2023-06-14T17:19:58;100910.38;;;27.42;40.98
71559;BME280;59382;43.852;25.952;2023-06-14T17:22:23;100899.72;;;27.35;41.25
71559;BME280;59382;43.852;25.952;2023-06-14T17:24:48;100918.00;;;27.36;41.07
71559;BME280;59382;43.852;25.952;2023-06-14T17:27:14;100925.31;;;27.32;41.07
71559;BME280;59382;43.852;25.952;2023-06-14T17:29:41;100895.81;;;27.14;41.22
71559;BME280;59382;43.852;25.952;2023-06-14T17:32:07;100923.81;;;27.26;41.30
71559;BME280;59382;43.852;25.952;2023-06-14T17:34:33;100929.94;;;27.23;41.19
71559;BME280;59382;43.852;25.952;2023-06-14T17:36:58;100922.25;;;27.20;41.15
71559;BME280;59382;43.852;25.952;2023-06-14T17:39:24;100920.13;;;27.17;41.36
71559;BME280;59382;43.852;25.952;2023-06-14T17:41:50;100927.31;;;27.18;41.13
71559;BME280;59382;43.852;25.952;2023-06-14T17:44:15;100914.84;;;27.07;41.53
71559;BME280;59382;43.852;25.952;2023-06-14T17:46:41;100918.13;;;27.09;41.41
71559;BME280;59382;43.852;25.952;2023-06-14T17:49:06;100922.38;;;27.07;41.68
71559;BME280;59382;43.852;25.952;2023-06-14T17:51:32;100922.38;;;27.07;41.64
71559;BME280;59382;43.852;25.952;2023-06-14T17:53:57;100923.47;;;27.06;41.55
71559;BME280;59382;43.852;25.952;2023-06-14T17:56:23;100916.63;;;27.03;41.92
71559;BME280;59382;43.852;25.952;2023-06-14T17:58:50;100920.03;;;27.00;41.87
71559;BME280;59382;43.852;25.952;2023-06-14T18:01:15;100904.31;;;26.87;41.91
71559;BME280;59382;43.852;25.952;2023-06-14T18:03:42;100919.66;;;26.93;41.73
71559;BME280;59382;43.852;25.952;2023-06-14T18:06:08;100915.38;;;26.87;41.60
71559;BME280;59382;43.852;25.952;2023-06-14T18:08:33;100931.38;;;26.90;41.75
71559;BME280;59382;43.852;25.952;2023-06-14T18:10:59;100932.00;;;26.87;41.69
71559;BME280;59382;43.852;25.952;2023-06-14T18:13:25;100928.34;;;26.78;41.88
71559;BME280;59382;43.852;25.952;2023-06-14T18:15:51;100930.97;;;26.83;41.54
71559;BME280;59382;43.852;25.952;2023-06-14T18:18:17;100920.13;;;26.73;41.54
71559;BME280;59382;43.852;25.952;2023-06-14T18:20:48;100926.31;;;26.70;41.60
71559;BME280;59382;43.852;25.952;2023-06-14T18:23:13;100927.56;;;26.64;42.02
71559;BME280;59382;43.852;25.952;2023-06-14T18:25:39;100921.59;;;26.57;41.89
71559;BME280;59382;43.852;25.952;2023-06-14T18:28:05;100939.94;;;26.66;42.05
71559;BME280;59382;43.852;25.952;2023-06-14T18:30:33;100930.44;;;26.59;42.16
71559;BME280;59382;43.852;25.952;2023-06-14T18:33:01;100945.59;;;26.61;42.44
71559;BME280;59382;43.852;25.952;2023-06-14T18:35:30;100944.38;;;26.54;42.42
71559;BME280;59382;43.852;25.952;2023-06-14T18:37:55;100952.06;;;26.57;42.08
71559;BME280;59382;43.852;25.952;2023-06-14T18:40:21;100959.22;;;26.58;42.57
71559;BME280;59382;43.852;25.952;2023-06-14T18:42:47;100965.06;;;26.56;42.77
71559;BME280;59382;43.852;25.952;2023-06-14T18:45:13;100973.56;;;26.60;42.69
71559;BME280;59382;43.852;25.952;2023-06-14T18:47:40;100972.25;;;26.57;42.76
71559;BME280;59382;43.852;25.952;2023-06-14T18:50:06;100958.13;;;26.45;42.46
71559;BME280;59382;43.852;25.952;2023-06-14T18:52:32;100979.72;;;26.57;42.51
71559;BME280;59382;43.852;25.952;2023-06-14T18:54:59;100987.19;;;26.56;42.92
71559;BME280;59382;43.852;25.952;2023-06-14T18:57:24;100988.88;;;26.57;42.80
71559;BME280;59382;43.852;25.952;2023-06-14T18:59:51;100983.13;;;26.54;42.69
71559;BME280;59382;43.852;25.952;2023-06-14T19:02:16;100984.94;;;26.58;42.62
71559;BME280;59382;43.852;25.952;2023-06-14T19:04:42;100989.66;;;26.58;42.80
71559;BME280;59382;43.852;25.952;2023-06-14T19:07:08;100996.66;;;26.55;43.06
71559;BME280;59382;43.852;25.952;2023-06-14T19:09:38;101000.34;;;26.51;44.25
71559;BME280;59382;43.852;25.952;2023-06-14T19:12:04;100975.56;;;26.32;44.97
71559;BME280;59382;43.852;25.952;2023-06-14T19:14:29;101003.22;;;26.46;45.73
71559;BME280;59382;43.852;25.952;2023-06-14T19:16:55;101004.44;;;26.40;45.61
71559;BME280;59382;43.852;25.952;2023-06-14T19:19:21;101011.41;;;26.37;46.01
71559;BME280;59382;43.852;25.952;2023-06-14T19:21:48;101011.81;;;26.31;46.44
71559;BME280;59382;43.852;25.952;2023-06-14T19:24:13;101014.59;;;26.31;46.59
71559;BME280;59382;43.852;25.952;2023-06-14T19:26:43;101014.09;;;26.29;46.39
71559;BME280;59382;43.852;25.952;2023-06-14T19:29:09;100997.06;;;26.22;46.16
71559;BME280;59382;43.852;25.952;2023-06-14T19:31:35;101006.50;;;26.21;46.37
71559;BME280;59382;43.852;25.952;2023-06-14T19:34:01;101007.13;;;26.18;46.14
71559;BME280;59382;43.852;25.952;2023-06-14T19:36:27;101010.81;;;26.13;46.27
71559;BME280;59382;43.852;25.952;2023-06-14T19:38:52;101008.34;;;26.12;46.51
71559;BME280;59382;43.852;25.952;2023-06-14T19:41:18;101017.56;;;26.07;46.46
71559;BME280;59382;43.852;25.952;2023-06-14T19:43:44;100999.13;;;26.03;46.34
71559;BME280;59382;43.852;25.952;2023-06-14T19:46:10;101004.66;;;26.03;46.31
71559;BME280;59382;43.852;25.952;2023-06-14T19:48:36;101000.78;;;26.04;46.36
71559;BME280;59382;43.852;25.952;2023-06-14T19:51:04;101010.41;;;26.06;46.56
71559;BME280;59382;43.852;25.952;2023-06-14T19:53:29;101010.94;;;26.08;46.37
71559;BME280;59382;43.852;25.952;2023-06-14T19:55:56;101001.72;;;25.99;46.50
71559;BME280;59382;43.852;25.952;2023-06-14T19:58:22;101011.25;;;26.07;46.96
71559;BME280;59382;43.852;25.952;2023-06-14T20:00:47;101008.56;;;26.02;47.34
71559;BME280;59382;43.852;25.952;2023-06-14T20:03:13;100997.69;;;25.92;47.86
71559;BME280;59382;43.852;25.952;2023-06-14T20:05:38;100985.47;;;25.79;48.22
71559;BME280;59382;43.852;25.952;2023-06-14T20:08:06;101005.84;;;25.97;48.46
71559;BME280;59382;43.852;25.952;2023-06-14T20:10:32;100997.03;;;25.81;49.19
71559;BME280;59382;43.852;25.952;2023-06-14T20:12:57;101001.13;;;25.84;48.95
71559;BME280;59382;43.852;25.952;2023-06-14T20:15:22;101010.97;;;25.90;49.49
71559;BME280;59382;43.852;25.952;2023-06-14T20:17:48;101002.34;;;25.78;49.64
71559;BME280;59382;43.852;25.952;2023-06-14T20:20:14;101013.81;;;25.85;49.42
71559;BME280;59382;43.852;25.952;2023-06-14T20:22:40;100990.78;;;25.76;49.08
71559;BME280;59382;43.852;25.952;2023-06-14T20:25:07;101003.59;;;25.85;49.49
71559;BME280;59382;43.852;25.952;2023-06-14T20:27:34;101007.81;;;25.83;48.99
71559;BME280;59382;43.852;25.952;2023-06-14T20:30:00;101000.72;;;25.77;49.07
71559;BME280;59382;43.852;25.952;2023-06-14T20:32:29;100994.38;;;25.76;49.42
71559;BME280;59382;43.852;25.952;2023-06-14T20:34:55;100992.44;;;25.77;49.36
71559;BME280;59382;43.852;25.952;2023-06-14T20:37:21;100999.50;;;25.83;49.06
71559;BME280;59382;43.852;25.952;2023-06-14T20:39:47;101002.28;;;25.83;48.96
71559;BME280;59382;43.852;25.952;2023-06-14T20:42:13;101012.19;;;25.84;48.57
71559;BME280;59382;43.852;25.952;2023-06-14T20:44:39;101000.72;;;25.77;48.82
71559;BME280;59382;43.852;25.952;2023-06-14T20:47:08;101014.44;;;25.82;48.84
71559;BME280;59382;43.852;25.952;2023-06-14T20:49:43;101007.66;;;25.74;48.97
71559;BME280;59382;43.852;25.952;2023-06-14T20:52:09;101018.34;;;25.81;49.71
71559;BME280;59382;43.852;25.952;2023-06-14T20:54:36;101010.94;;;25.76;50.07
71559;BME280;59382;43.852;25.952;2023-06-14T20:57:07;101000.91;;;25.67;50.99
71559;BME280;59382;43.852;25.952;2023-06-14T20:59:33;101021.06;;;25.67;50.88
71559;BME280;59382;43.852;25.952;2023-06-14T21:01:58;101003.66;;;25.53;51.33
71559;BME280;59382;43.852;25.952;2023-06-14T21:04:24;101012.75;;;25.54;51.59
71559;BME280;59382;43.852;25.952;2023-06-14T21:06:49;101019.09;;;25.54;51.24
71559;BME280;59382;43.852;25.952;2023-06-14T21:09:15;101006.19;;;25.50;51.04
71559;BME280;59382;43.852;25.952;2023-06-14T21:11:41;101018.19;;;25.59;51.41
71559;BME280;59382;43.852;25.952;2023-06-14T21:14:07;101010.28;;;25.52;51.27
71559;BME280;59382;43.852;25.952;2023-06-14T21:16:33;101019.09;;;25.54;51.30
71559;BME280;59382;43.852;25.952;2023-06-14T21:18:58;101014.78;;;25.48;51.08
71559;BME280;59382;43.852;25.952;2023-06-14T21:21:23;100995.94;;;25.37;50.82
71559;BME280;59382;43.852;25.952;2023-06-14T21:23:49;101014.19;;;25.51;50.66
71559;BME280;59382;43.852;25.952;2023-06-14T21:26:15;101010.59;;;25.51;51.01
71559;BME280;59382;43.852;25.952;2023-06-14T21:28:41;101015.63;;;25.49;50.78
71559;BME280;59382;43.852;25.952;2023-06-14T21:31:09;100998.59;;;25.42;50.56
71559;BME280;59382;43.852;25.952;2023-06-14T21:33:35;100994.25;;;25.36;50.57
71559;BME280;59382;43.852;25.952;2023-06-14T21:36:01;100982.53;;;25.25;50.30
71559;BME280;59382;43.852;25.952;2023-06-14T21:38:27;100990.47;;;25.32;50.11
71559;BME280;59382;43.852;25.952;2023-06-14T21:40:52;101012.94;;;25.44;49.92
71559;BME280;59382;43.852;25.952;2023-06-14T21:43:18;101007.41;;;25.44;49.97
71559;BME280;59382;43.852;25.952;2023-06-14T21:45:43;100999.41;;;25.42;49.83
71559;BME280;59382;43.852;25.952;2023-06-14T21:48:09;101004.34;;;25.45;49.72
71559;BME280;59382;43.852;25.952;2023-06-14T21:50:35;100995.75;;;25.47;50.05
71559;BME280;59382;43.852;25.952;2023-06-14T21:53:00;100992.44;;;25.45;50.01
71559;BME280;59382;43.852;25.952;2023-06-14T21:55:26;100979.34;;;25.37;49.53
71559;BME280;59382;43.852;25.952;2023-06-14T21:57:53;100972.16;;;25.36;49.97
71559;BME280;59382;43.852;25.952;2023-06-14T22:00:18;100968.31;;;25.37;49.82
71559;BME280;59382;43.852;25.952;2023-06-14T22:02:46;100979.78;;;25.44;49.71
71559;BME280;59382;43.852;25.952;2023-06-14T22:05:12;100978.75;;;25.40;49.58
71559;BME280;59382;43.852;25.952;2023-06-14T22:07:38;100982.59;;;25.39;49.99
71559;BME280;59382;43.852;25.952;2023-06-14T22:10:03;100982.13;;;25.37;50.01
71559;BME280;59382;43.852;25.952;2023-06-14T22:12:30;100989.28;;;25.38;50.02
71559;BME280;59382;43.852;25.952;2023-06-14T22:14:56;100981.31;;;25.31;50.40
71559;BME280;59382;43.852;25.952;2023-06-14T22:17:21;100989.34;;;25.33;50.47
71559;BME280;59382;43.852;25.952;2023-06-14T22:19:48;100975.78;;;25.18;51.12
71559;BME280;59382;43.852;25.952;2023-06-14T22:22:17;100973.69;;;25.10;50.87
71559;BME280;59382;43.852;25.952;2023-06-14T22:24:50;100986.84;;;25.18;51.40
71559;BME280;59382;43.852;25.952;2023-06-14T22:27:16;100967.22;;;25.00;51.26
71559;BME280;59382;43.852;25.952;2023-06-14T22:29:46;100988.47;;;25.19;51.37
71559;BME280;59382;43.852;25.952;2023-06-14T22:32:13;100980.78;;;25.16;51.84
71559;BME280;59382;43.852;25.952;2023-06-14T22:34:40;100986.00;;;25.17;51.70
71559;BME280;59382;43.852;25.952;2023-06-14T22:37:06;100962.00;;;24.99;52.06
71559;BME280;59382;43.852;25.952;2023-06-14T22:39:33;100992.72;;;25.11;52.54
71559;BME280;59382;43.852;25.952;2023-06-14T22:41:59;100989.84;;;25.02;53.07
71559;BME280;59382;43.852;25.952;2023-06-14T22:44:27;100987.13;;;24.97;53.52
71559;BME280;59382;43.852;25.952;2023-06-14T22:46:57;100983.25;;;24.98;53.30
71559;BME280;59382;43.852;25.952;2023-06-14T22:49:26;100983.25;;;24.98;53.33
71559;BME280;59382;43.852;25.952;2023-06-14T22:51:52;100975.28;;;24.97;53.33
71559;BME280;59382;43.852;25.952;2023-06-14T22:54:21;100972.22;;;24.98;53.51
71559;BME280;59382;43.852;25.952;2023-06-14T22:56:47;100971.19;;;24.94;53.26
71559;BME280;59382;43.852;25.952;2023-06-14T22:59:12;100977.97;;;25.02;53.31
71559;BME280;59382;43.852;25.952;2023-06-14T23:01:38;100965.41;;;24.91;53.81
71559;BME280;59382;43.852;25.952;2023-06-14T23:04:04;100977.28;;;24.91;53.83
71559;BME280;59382;43.852;25.952;2023-06-14T23:06:29;100973.09;;;24.94;53.77
71559;BME280;59382;43.852;25.952;2023-06-14T23:08:57;100968.72;;;24.93;53.81
71559;BME280;59382;43.852;25.952;2023-06-14T23:11:25;100971.19;;;24.94;53.77
71559;BME280;59382;43.852;25.952;2023-06-14T23:13:51;100954.78;;;24.84;54.21
71559;BME280;59382;43.852;25.952;2023-06-14T23:16:19;100967.97;;;24.87;54.17
71559;BME280;59382;43.852;25.952;2023-06-14T23:18:45;100969.09;;;24.86;54.30
71559;BME280;59382;43.852;25.952;2023-06-14T23:21:15;100974.09;;;24.84;54.27
71559;BME280;59382;43.852;25.952;2023-06-14T23:23:44;100953.28;;;24.73;54.26
71559;BME280;59382;43.852;25.952;2023-06-14T23:26:16;100964.25;;;24.78;54.79
71559;BME280;59382;43.852;25.952;2023-06-14T23:28:43;100967.00;;;24.78;54.65
71559;BME280;59382;43.852;25.952;2023-06-14T23:31:11;100972.75;;;24.82;54.62
71559;BME280;59382;43.852;25.952;2023-06-14T23:33:36;100963.13;;;24.79;54.78
71559;BME280;59382;43.852;25.952;2023-06-14T23:36:03;100950.03;;;24.71;54.53
71559;BME280;59382;43.852;25.952;2023-06-14T23:38:32;100958.19;;;24.76;54.53
71559;BME280;59382;43.852;25.952;2023-06-14T23:40:58;100951.13;;;24.70;54.68
71559;BME280;59382;43.852;25.952;2023-06-14T23:43:24;100970.06;;;24.77;54.77
71559;BME280;59382;43.852;25.952;2023-06-14T23:45:51;100970.22;;;24.67;54.82
71559;BME280;59382;43.852;25.952;2023-06-14T23:48:24;100964.31;;;24.55;55.57
71559;BME280;59382;43.852;25.952;2023-06-14T23:50:54;100976.69;;;24.57;55.68
71559;BME280;59382;43.852;25.952;2023-06-14T23:53:20;100978.59;;;24.57;55.71
71559;BME280;59382;43.852;25.952;2023-06-14T23:55:47;100966.81;;;24.51;55.37
71559;BME280;59382;43.852;25.952;2023-06-14T23:58:21;100981.34;;;24.57;55.39
